Lake Waccamaw, North Carolina
Current Conditions -  °F | °C
As of 10:55 PM on Sunday 23 Nov 2014 (Local Time) from KCPC Reporting Station
Heavy Rain Heavy Rain  
Wind Chill: 69°   Ceiling: 2700
Heat Index: 69°   Visibility: 5mi
Dew Point: 67°   Wind: 23mph
Humidity: 93%   Direction: 220°SW
Pressure: 29.87"   Gusts: 35mph
Location:  34.32°N, 78.5°W
Report Text: KCPC 240355Z AUTO 22020G30KT 5SM +RA SCT014 BKN027 OVC036 21/20 A2987 RMK AO2 P0007 T02070195
Loading
Personal Weather Stations






























Interactive Weather Map New forecast layout! Learn more

10-Day Weather Forecast

Advertisements
Track Severe Weather on mobile